sensor_id;sensor_type;location;lat;lon;timestamp;P1;durP1;ratioP1;P2;durP2;ratioP2
41875;SDS011;27555;50.808;4.402;2022-12-26T00:01:31;5.43;;;3.50;;
41875;SDS011;27555;50.808;4.402;2022-12-26T00:03:59;5.28;;;3.90;;
41875;SDS011;27555;50.808;4.402;2022-12-26T00:06:25;5.07;;;4.15;;
41875;SDS011;27555;50.808;4.402;2022-12-26T00:08:52;7.85;;;4.35;;
41875;SDS011;27555;50.808;4.402;2022-12-26T00:11:19;6.10;;;4.15;;
41875;SDS011;27555;50.808;4.402;2022-12-26T00:13:46;9.77;;;5.57;;
41875;SDS011;27555;50.808;4.402;2022-12-26T00:16:13;10.45;;;5.95;;
41875;SDS011;27555;50.808;4.402;2022-12-26T00:18:41;11.02;;;6.57;;
41875;SDS011;27555;50.808;4.402;2022-12-26T00:21:07;15.20;;;7.20;;
41875;SDS011;27555;50.808;4.402;2022-12-26T00:23:34;16.83;;;7.97;;
41875;SDS011;27555;50.808;4.402;2022-12-26T00:26:04;11.75;;;6.90;;
41875;SDS011;27555;50.808;4.402;2022-12-26T00:28:32;15.18;;;8.30;;
41875;SDS011;27555;50.808;4.402;2022-12-26T00:30:57;14.05;;;8.20;;
41875;SDS011;27555;50.808;4.402;2022-12-26T00:33:23;20.00;;;9.63;;
41875;SDS011;27555;50.808;4.402;2022-12-26T00:35:48;16.05;;;7.60;;
41875;SDS011;27555;50.808;4.402;2022-12-26T00:38:14;21.40;;;9.23;;
41875;SDS011;27555;50.808;4.402;2022-12-26T00:40:40;18.00;;;8.30;;
41875;SDS011;27555;50.808;4.402;2022-12-26T00:43:07;16.40;;;9.18;;
41875;SDS011;27555;50.808;4.402;2022-12-26T00:45:33;17.25;;;9.05;;
41875;SDS011;27555;50.808;4.402;2022-12-26T00:47:59;15.43;;;7.85;;
41875;SDS011;27555;50.808;4.402;2022-12-26T00:50:25;17.20;;;9.15;;
41875;SDS011;27555;50.808;4.402;2022-12-26T00:52:50;14.43;;;8.43;;
41875;SDS011;27555;50.808;4.402;2022-12-26T00:55:16;16.98;;;8.80;;
41875;SDS011;27555;50.808;4.402;2022-12-26T00:57:42;17.88;;;9.15;;
41875;SDS011;27555;50.808;4.402;2022-12-26T01:00:07;17.30;;;8.65;;
41875;SDS011;27555;50.808;4.402;2022-12-26T01:02:33;14.88;;;8.35;;
41875;SDS011;27555;50.808;4.402;2022-12-26T01:05:02;17.50;;;8.68;;
41875;SDS011;27555;50.808;4.402;2022-12-26T01:07:31;16.50;;;8.13;;
41875;SDS011;27555;50.808;4.402;2022-12-26T01:09:59;13.68;;;7.65;;
41875;SDS011;27555;50.808;4.402;2022-12-26T01:12:24;12.93;;;7.65;;
41875;SDS011;27555;50.808;4.402;2022-12-26T01:14:51;10.77;;;6.97;;
41875;SDS011;27555;50.808;4.402;2022-12-26T01:17:19;12.57;;;7.70;;
41875;SDS011;27555;50.808;4.402;2022-12-26T01:19:45;12.25;;;7.55;;
41875;SDS011;27555;50.808;4.402;2022-12-26T01:22:10;10.48;;;7.40;;
41875;SDS011;27555;50.808;4.402;2022-12-26T01:24:36;9.07;;;6.20;;
41875;SDS011;27555;50.808;4.402;2022-12-26T01:27:01;8.82;;;6.40;;
41875;SDS011;27555;50.808;4.402;2022-12-26T01:29:27;8.85;;;5.93;;
41875;SDS011;27555;50.808;4.402;2022-12-26T01:31:53;8.95;;;5.80;;
41875;SDS011;27555;50.808;4.402;2022-12-26T01:34:18;9.07;;;6.47;;
41875;SDS011;27555;50.808;4.402;2022-12-26T01:36:44;7.70;;;5.10;;
41875;SDS011;27555;50.808;4.402;2022-12-26T01:39:09;8.20;;;5.10;;
41875;SDS011;27555;50.808;4.402;2022-12-26T01:41:35;6.78;;;4.90;;
41875;SDS011;27555;50.808;4.402;2022-12-26T01:44:02;6.50;;;4.45;;
41875;SDS011;27555;50.808;4.402;2022-12-26T01:46:34;7.32;;;4.22;;
41875;SDS011;27555;50.808;4.402;2022-12-26T01:49:16;5.55;;;3.72;;
41875;SDS011;27555;50.808;4.402;2022-12-26T01:51:49;5.35;;;3.70;;
41875;SDS011;27555;50.808;4.402;2022-12-26T01:54:21;5.72;;;4.22;;
41875;SDS011;27555;50.808;4.402;2022-12-26T01:56:49;6.55;;;4.05;;
41875;SDS011;27555;50.808;4.402;2022-12-26T01:59:19;5.90;;;4.22;;
41875;SDS011;27555;50.808;4.402;2022-12-26T02:01:49;4.50;;;3.25;;
41875;SDS011;27555;50.808;4.402;2022-12-26T02:04:19;5.57;;;3.78;;
41875;SDS011;27555;50.808;4.402;2022-12-26T02:07:07;3.90;;;3.28;;
41875;SDS011;27555;50.808;4.402;2022-12-26T02:09:33;5.35;;;3.30;;
41875;SDS011;27555;50.808;4.402;2022-12-26T02:12:00;5.15;;;3.85;;
41875;SDS011;27555;50.808;4.402;2022-12-26T02:14:40;5.35;;;3.45;;
41875;SDS011;27555;50.808;4.402;2022-12-26T02:17:06;3.47;;;2.95;;
41875;SDS011;27555;50.808;4.402;2022-12-26T02:25:11;6.32;;;2.80;;
41875;SDS011;27555;50.808;4.402;2022-12-26T02:36:32;5.47;;;3.00;;
41875;SDS011;27555;50.808;4.402;2022-12-26T02:48:12;1.77;;;1.40;;
41875;SDS011;27555;50.808;4.402;2022-12-26T02:56:54;2.15;;;1.13;;
41875;SDS011;27555;50.808;4.402;2022-12-26T02:59:51;3.22;;;1.20;;
41875;SDS011;27555;50.808;4.402;2022-12-26T03:03:02;2.03;;;1.50;;
41875;SDS011;27555;50.808;4.402;2022-12-26T03:09:03;3.33;;;2.17;;
41875;SDS011;27555;50.808;4.402;2022-12-26T03:11:52;4.95;;;2.40;;
41875;SDS011;27555;50.808;4.402;2022-12-26T03:14:53;5.38;;;2.60;;
41875;SDS011;27555;50.808;4.402;2022-12-26T03:17:29;3.25;;;2.58;;
41875;SDS011;27555;50.808;4.402;2022-12-26T03:22:41;5.68;;;3.40;;
41875;SDS011;27555;50.808;4.402;2022-12-26T03:25:22;4.35;;;2.88;;
41875;SDS011;27555;50.808;4.402;2022-12-26T03:28:26;5.60;;;3.17;;
41875;SDS011;27555;50.808;4.402;2022-12-26T03:30:52;5.07;;;2.83;;
41875;SDS011;27555;50.808;4.402;2022-12-26T03:36:05;3.35;;;2.38;;
41875;SDS011;27555;50.808;4.402;2022-12-26T03:41:21;3.20;;;1.92;;
41875;SDS011;27555;50.808;4.402;2022-12-26T03:44:23;3.20;;;1.83;;
41875;SDS011;27555;50.808;4.402;2022-12-26T03:47:19;3.17;;;2.10;;
41875;SDS011;27555;50.808;4.402;2022-12-26T03:50:31;2.15;;;1.63;;
41875;SDS011;27555;50.808;4.402;2022-12-26T03:56:32;2.97;;;1.75;;
41875;SDS011;27555;50.808;4.402;2022-12-26T03:59:37;5.90;;;1.75;;
41875;SDS011;27555;50.808;4.402;2022-12-26T04:02:27;1.98;;;1.40;;
41875;SDS011;27555;50.808;4.402;2022-12-26T04:05:14;2.85;;;1.70;;
41875;SDS011;27555;50.808;4.402;2022-12-26T04:08:01;5.20;;;1.45;;
41875;SDS011;27555;50.808;4.402;2022-12-26T04:10:54;4.55;;;1.90;;
41875;SDS011;27555;50.808;4.402;2022-12-26T04:16:40;4.75;;;1.90;;
41875;SDS011;27555;50.808;4.402;2022-12-26T04:19:42;2.60;;;1.92;;
41875;SDS011;27555;50.808;4.402;2022-12-26T04:22:43;3.83;;;1.63;;
41875;SDS011;27555;50.808;4.402;2022-12-26T04:25:53;2.45;;;1.67;;
41875;SDS011;27555;50.808;4.402;2022-12-26T04:28:47;3.80;;;1.50;;
41875;SDS011;27555;50.808;4.402;2022-12-26T04:34:18;5.00;;;1.63;;
41875;SDS011;27555;50.808;4.402;2022-12-26T04:37:16;2.38;;;1.60;;
41875;SDS011;27555;50.808;4.402;2022-12-26T04:40:05;3.63;;;1.58;;
41875;SDS011;27555;50.808;4.402;2022-12-26T04:42:54;2.35;;;1.42;;
41875;SDS011;27555;50.808;4.402;2022-12-26T04:45:39;1.52;;;1.25;;
41875;SDS011;27555;50.808;4.402;2022-12-26T04:48:05;2.22;;;1.40;;
41875;SDS011;27555;50.808;4.402;2022-12-26T04:50:50;2.67;;;1.60;;
41875;SDS011;27555;50.808;4.402;2022-12-26T04:53:17;3.22;;;1.33;;
41875;SDS011;27555;50.808;4.402;2022-12-26T04:55:43;2.60;;;1.63;;
41875;SDS011;27555;50.808;4.402;2022-12-26T04:58:09;3.80;;;1.20;;
41875;SDS011;27555;50.808;4.402;2022-12-26T05:00:35;3.67;;;1.40;;
41875;SDS011;27555;50.808;4.402;2022-12-26T05:03:00;2.33;;;1.10;;
41875;SDS011;27555;50.808;4.402;2022-12-26T05:05:45;3.42;;;1.27;;
41875;SDS011;27555;50.808;4.402;2022-12-26T05:08:45;1.40;;;1.00;;
41875;SDS011;27555;50.808;4.402;2022-12-26T05:11:30;2.10;;;0.90;;
41875;SDS011;27555;50.808;4.402;2022-12-26T05:13:57;6.13;;;1.73;;
41875;SDS011;27555;50.808;4.402;2022-12-26T05:16:24;1.30;;;0.80;;
41875;SDS011;27555;50.808;4.402;2022-12-26T05:19:10;1.77;;;0.85;;
41875;SDS011;27555;50.808;4.402;2022-12-26T05:21:55;0.80;;;0.70;;
41875;SDS011;27555;50.808;4.402;2022-12-26T05:24:40;2.78;;;0.88;;
41875;SDS011;27555;50.808;4.402;2022-12-26T05:27:28;1.50;;;0.80;;
41875;SDS011;27555;50.808;4.402;2022-12-26T05:30:20;0.85;;;0.70;;
41875;SDS011;27555;50.808;4.402;2022-12-26T05:32:45;2.28;;;0.80;;
41875;SDS011;27555;50.808;4.402;2022-12-26T05:35:29;1.60;;;0.80;;
41875;SDS011;27555;50.808;4.402;2022-12-26T05:37:56;1.48;;;0.77;;
41875;SDS011;27555;50.808;4.402;2022-12-26T05:40:22;0.65;;;0.50;;
41875;SDS011;27555;50.808;4.402;2022-12-26T05:42:47;3.50;;;0.73;;
41875;SDS011;27555;50.808;4.402;2022-12-26T05:45:13;0.80;;;0.80;;
41875;SDS011;27555;50.808;4.402;2022-12-26T05:47:38;1.02;;;0.98;;
41875;SDS011;27555;50.808;4.402;2022-12-26T05:50:05;2.35;;;0.98;;
41875;SDS011;27555;50.808;4.402;2022-12-26T05:52:31;1.75;;;0.90;;
41875;SDS011;27555;50.808;4.402;2022-12-26T05:54:56;1.13;;;0.80;;
41875;SDS011;27555;50.808;4.402;2022-12-26T05:57:22;2.58;;;1.10;;
41875;SDS011;27555;50.808;4.402;2022-12-26T05:59:47;1.95;;;0.88;;
41875;SDS011;27555;50.808;4.402;2022-12-26T06:02:13;2.20;;;0.80;;
41875;SDS011;27555;50.808;4.402;2022-12-26T06:04:38;1.15;;;0.85;;
41875;SDS011;27555;50.808;4.402;2022-12-26T06:07:04;2.20;;;0.80;;
41875;SDS011;27555;50.808;4.402;2022-12-26T06:09:30;1.35;;;0.70;;
41875;SDS011;27555;50.808;4.402;2022-12-26T06:11:55;4.43;;;0.80;;
41875;SDS011;27555;50.808;4.402;2022-12-26T06:14:21;3.50;;;0.82;;
41875;SDS011;27555;50.808;4.402;2022-12-26T06:16:46;1.60;;;0.82;;
41875;SDS011;27555;50.808;4.402;2022-12-26T06:19:12;2.67;;;0.98;;
41875;SDS011;27555;50.808;4.402;2022-12-26T06:21:37;2.47;;;0.75;;
41875;SDS011;27555;50.808;4.402;2022-12-26T06:24:03;2.60;;;0.70;;
41875;SDS011;27555;50.808;4.402;2022-12-26T06:26:29;2.03;;;0.70;;
41875;SDS011;27555;50.808;4.402;2022-12-26T06:28:54;3.03;;;0.73;;
41875;SDS011;27555;50.808;4.402;2022-12-26T06:31:21;3.60;;;0.60;;
41875;SDS011;27555;50.808;4.402;2022-12-26T06:33:48;1.08;;;0.40;;
41875;SDS011;27555;50.808;4.402;2022-12-26T06:36:19;3.80;;;0.80;;
41875;SDS011;27555;50.808;4.402;2022-12-26T06:38:45;2.55;;;0.70;;
41875;SDS011;27555;50.808;4.402;2022-12-26T06:41:12;0.77;;;0.60;;
41875;SDS011;27555;50.808;4.402;2022-12-26T06:43:39;3.58;;;0.60;;
41875;SDS011;27555;50.808;4.402;2022-12-26T06:46:05;2.47;;;0.93;;
41875;SDS011;27555;50.808;4.402;2022-12-26T06:48:33;2.13;;;0.65;;
41875;SDS011;27555;50.808;4.402;2022-12-26T06:51:08;1.85;;;0.77;;
41875;SDS011;27555;50.808;4.402;2022-12-26T06:53:35;1.13;;;0.50;;
41875;SDS011;27555;50.808;4.402;2022-12-26T06:56:12;1.23;;;0.40;;
41875;SDS011;27555;50.808;4.402;2022-12-26T06:58:42;1.98;;;0.52;;
41875;SDS011;27555;50.808;4.402;2022-12-26T07:01:11;4.45;;;0.77;;
41875;SDS011;27555;50.808;4.402;2022-12-26T07:03:38;1.77;;;0.90;;
41875;SDS011;27555;50.808;4.402;2022-12-26T07:06:05;3.15;;;0.80;;
41875;SDS011;27555;50.808;4.402;2022-12-26T07:08:35;1.88;;;0.63;;
41875;SDS011;27555;50.808;4.402;2022-12-26T07:11:00;2.97;;;0.73;;
41875;SDS011;27555;50.808;4.402;2022-12-26T07:13:26;1.67;;;0.47;;
41875;SDS011;27555;50.808;4.402;2022-12-26T07:15:52;4.53;;;0.70;;
41875;SDS011;27555;50.808;4.402;2022-12-26T07:18:17;1.48;;;0.60;;
41875;SDS011;27555;50.808;4.402;2022-12-26T07:20:43;2.80;;;0.60;;
41875;SDS011;27555;50.808;4.402;2022-12-26T07:23:09;1.67;;;0.57;;
41875;SDS011;27555;50.808;4.402;2022-12-26T07:25:35;3.90;;;0.65;;
41875;SDS011;27555;50.808;4.402;2022-12-26T07:28:01;6.15;;;0.95;;
41875;SDS011;27555;50.808;4.402;2022-12-26T07:30:27;0.77;;;0.40;;
41875;SDS011;27555;50.808;4.402;2022-12-26T07:32:53;8.52;;;1.02;;
41875;SDS011;27555;50.808;4.402;2022-12-26T07:35:18;2.17;;;0.75;;
41875;SDS011;27555;50.808;4.402;2022-12-26T07:37:44;3.65;;;0.63;;
41875;SDS011;27555;50.808;4.402;2022-12-26T07:40:10;2.20;;;0.68;;
41875;SDS011;27555;50.808;4.402;2022-12-26T07:42:36;4.28;;;0.88;;
41875;SDS011;27555;50.808;4.402;2022-12-26T07:45:01;5.82;;;0.90;;
41875;SDS011;27555;50.808;4.402;2022-12-26T07:47:27;4.38;;;1.20;;
41875;SDS011;27555;50.808;4.402;2022-12-26T07:49:53;8.82;;;1.45;;
41875;SDS011;27555;50.808;4.402;2022-12-26T07:52:18;1.08;;;0.57;;
41875;SDS011;27555;50.808;4.402;2022-12-26T07:54:44;2.28;;;0.90;;
41875;SDS011;27555;50.808;4.402;2022-12-26T07:57:09;3.60;;;0.80;;
41875;SDS011;27555;50.808;4.402;2022-12-26T07:59:35;2.38;;;1.02;;
41875;SDS011;27555;50.808;4.402;2022-12-26T08:02:01;1.88;;;0.52;;
41875;SDS011;27555;50.808;4.402;2022-12-26T08:04:29;4.57;;;1.10;;
41875;SDS011;27555;50.808;4.402;2022-12-26T08:06:56;4.38;;;0.70;;
41875;SDS011;27555;50.808;4.402;2022-12-26T08:09:22;1.73;;;0.75;;
41875;SDS011;27555;50.808;4.402;2022-12-26T08:11:47;2.10;;;0.60;;
41875;SDS011;27555;50.808;4.402;2022-12-26T08:14:13;7.93;;;1.00;;
41875;SDS011;27555;50.808;4.402;2022-12-26T08:16:42;6.63;;;1.17;;
41875;SDS011;27555;50.808;4.402;2022-12-26T08:19:09;2.92;;;1.00;;
41875;SDS011;27555;50.808;4.402;2022-12-26T08:21:35;4.43;;;0.82;;
41875;SDS011;27555;50.808;4.402;2022-12-26T08:24:00;4.15;;;1.33;;
41875;SDS011;27555;50.808;4.402;2022-12-26T08:26:26;3.53;;;0.85;;
41875;SDS011;27555;50.808;4.402;2022-12-26T08:28:53;6.40;;;0.95;;
41875;SDS011;27555;50.808;4.402;2022-12-26T08:31:20;2.15;;;0.75;;
41875;SDS011;27555;50.808;4.402;2022-12-26T08:33:46;4.97;;;1.77;;
41875;SDS011;27555;50.808;4.402;2022-12-26T08:36:12;5.65;;;1.00;;
41875;SDS011;27555;50.808;4.402;2022-12-26T08:38:41;3.55;;;0.85;;
41875;SDS011;27555;50.808;4.402;2022-12-26T08:41:07;15.82;;;3.00;;
41875;SDS011;27555;50.808;4.402;2022-12-26T08:43:33;6.63;;;0.90;;
41875;SDS011;27555;50.808;4.402;2022-12-26T08:46:00;3.72;;;0.65;;
41875;SDS011;27555;50.808;4.402;2022-12-26T08:48:27;4.78;;;1.05;;
41875;SDS011;27555;50.808;4.402;2022-12-26T08:50:57;3.45;;;0.90;;
41875;SDS011;27555;50.808;4.402;2022-12-26T08:53:25;3.45;;;1.08;;
41875;SDS011;27555;50.808;4.402;2022-12-26T08:55:52;9.50;;;1.75;;
41875;SDS011;27555;50.808;4.402;2022-12-26T08:58:18;4.38;;;0.82;;
41875;SDS011;27555;50.808;4.402;2022-12-26T09:00:44;7.22;;;1.05;;
41875;SDS011;27555;50.808;4.402;2022-12-26T09:03:10;5.82;;;1.08;;
41875;SDS011;27555;50.808;4.402;2022-12-26T09:05:35;5.50;;;0.95;;
41875;SDS011;27555;50.808;4.402;2022-12-26T09:08:01;3.33;;;0.77;;
41875;SDS011;27555;50.808;4.402;2022-12-26T09:10:27;5.07;;;0.95;;
41875;SDS011;27555;50.808;4.402;2022-12-26T09:12:52;6.80;;;1.05;;
41875;SDS011;27555;50.808;4.402;2022-12-26T09:15:18;7.80;;;0.88;;
41875;SDS011;27555;50.808;4.402;2022-12-26T09:17:43;9.88;;;1.52;;
41875;SDS011;27555;50.808;4.402;2022-12-26T09:20:09;3.00;;;0.80;;
41875;SDS011;27555;50.808;4.402;2022-12-26T09:22:35;6.25;;;0.93;;
41875;SDS011;27555;50.808;4.402;2022-12-26T09:25:19;7.13;;;1.38;;
41875;SDS011;27555;50.808;4.402;2022-12-26T09:27:49;6.07;;;1.00;;
41875;SDS011;27555;50.808;4.402;2022-12-26T09:30:17;13.50;;;1.52;;
41875;SDS011;27555;50.808;4.402;2022-12-26T09:32:44;4.25;;;1.10;;
41875;SDS011;27555;50.808;4.402;2022-12-26T09:35:10;5.57;;;1.58;;
41875;SDS011;27555;50.808;4.402;2022-12-26T09:37:36;6.63;;;0.93;;
41875;SDS011;27555;50.808;4.402;2022-12-26T09:40:01;5.78;;;1.20;;
41875;SDS011;27555;50.808;4.402;2022-12-26T09:50:17;7.53;;;0.75;;
41875;SDS011;27555;50.808;4.402;2022-12-26T09:53:11;3.08;;;1.17;;
41875;SDS011;27555;50.808;4.402;2022-12-26T10:03:41;4.68;;;1.00;;
41875;SDS011;27555;50.808;4.402;2022-12-26T10:06:51;6.30;;;1.00;;
41875;SDS011;27555;50.808;4.402;2022-12-26T10:09:31;6.28;;;1.17;;
41875;SDS011;27555;50.808;4.402;2022-12-26T10:15:05;6.03;;;1.23;;
41875;SDS011;27555;50.808;4.402;2022-12-26T10:17:48;7.80;;;1.90;;
41875;SDS011;27555;50.808;4.402;2022-12-26T10:25:48;6.60;;;1.00;;
41875;SDS011;27555;50.808;4.402;2022-12-26T10:30:56;4.03;;;1.38;;
41875;SDS011;27555;50.808;4.402;2022-12-26T10:33:44;6.22;;;1.23;;
41875;SDS011;27555;50.808;4.402;2022-12-26T10:36:16;3.28;;;0.90;;
41875;SDS011;27555;50.808;4.402;2022-12-26T10:38:52;6.28;;;0.95;;
41875;SDS011;27555;50.808;4.402;2022-12-26T10:41:23;6.07;;;0.90;;
41875;SDS011;27555;50.808;4.402;2022-12-26T10:43:51;4.10;;;0.90;;
41875;SDS011;27555;50.808;4.402;2022-12-26T10:48:49;8.50;;;1.42;;
41875;SDS011;27555;50.808;4.402;2022-12-26T10:51:14;4.82;;;0.70;;
41875;SDS011;27555;50.808;4.402;2022-12-26T10:53:41;3.90;;;0.75;;
41875;SDS011;27555;50.808;4.402;2022-12-26T10:56:11;5.05;;;1.17;;
41875;SDS011;27555;50.808;4.402;2022-12-26T10:58:37;5.63;;;1.55;;
41875;SDS011;27555;50.808;4.402;2022-12-26T11:04:00;5.80;;;1.20;;
41875;SDS011;27555;50.808;4.402;2022-12-26T11:06:36;6.47;;;1.00;;
41875;SDS011;27555;50.808;4.402;2022-12-26T11:09:05;9.48;;;1.90;;
41875;SDS011;27555;50.808;4.402;2022-12-26T11:11:32;7.82;;;1.50;;
41875;SDS011;27555;50.808;4.402;2022-12-26T11:17:10;10.18;;;1.40;;
41875;SDS011;27555;50.808;4.402;2022-12-26T11:19:42;5.70;;;1.10;;
41875;SDS011;27555;50.808;4.402;2022-12-26T11:22:29;7.90;;;1.50;;
41875;SDS011;27555;50.808;4.402;2022-12-26T11:25:17;7.93;;;1.65;;
41875;SDS011;27555;50.808;4.402;2022-12-26T11:27:46;3.45;;;0.90;;
41875;SDS011;27555;50.808;4.402;2022-12-26T11:32:40;6.60;;;1.70;;
41875;SDS011;27555;50.808;4.402;2022-12-26T11:35:43;4.53;;;0.80;;
41875;SDS011;27555;50.808;4.402;2022-12-26T11:38:02;3.33;;;0.60;;
41875;SDS011;27555;50.808;4.402;2022-12-26T11:40:35;2.90;;;0.60;;
41875;SDS011;27555;50.808;4.402;2022-12-26T11:43:03;2.80;;;1.13;;
41875;SDS011;27555;50.808;4.402;2022-12-26T11:45:40;9.60;;;1.92;;
41875;SDS011;27555;50.808;4.402;2022-12-26T11:48:16;6.78;;;1.63;;
41875;SDS011;27555;50.808;4.402;2022-12-26T11:50:47;2.58;;;1.13;;
41875;SDS011;27555;50.808;4.402;2022-12-26T11:53:15;4.65;;;1.02;;
41875;SDS011;27555;50.808;4.402;2022-12-26T11:55:42;5.05;;;1.27;;
41875;SDS011;27555;50.808;4.402;2022-12-26T11:58:19;5.00;;;0.70;;
41875;SDS011;27555;50.808;4.402;2022-12-26T12:03:16;11.40;;;2.85;;
41875;SDS011;27555;50.808;4.402;2022-12-26T12:09:06;9.97;;;3.30;;
41875;SDS011;27555;50.808;4.402;2022-12-26T12:11:51;6.82;;;1.48;;
41875;SDS011;27555;50.808;4.402;2022-12-26T12:17:19;11.07;;;2.97;;
41875;SDS011;27555;50.808;4.402;2022-12-26T12:25:36;8.95;;;1.75;;
41875;SDS011;27555;50.808;4.402;2022-12-26T12:36:59;10.35;;;1.73;;
41875;SDS011;27555;50.808;4.402;2022-12-26T13:04:11;14.68;;;2.53;;
41875;SDS011;27555;50.808;4.402;2022-12-26T13:06:57;7.30;;;1.75;;
41875;SDS011;27555;50.808;4.402;2022-12-26T13:09:50;4.93;;;1.45;;
41875;SDS011;27555;50.808;4.402;2022-12-26T13:12:20;10.65;;;1.60;;
41875;SDS011;27555;50.808;4.402;2022-12-26T13:18:02;15.63;;;2.10;;
41875;SDS011;27555;50.808;4.402;2022-12-26T13:20:41;17.77;;;3.33;;
41875;SDS011;27555;50.808;4.402;2022-12-26T13:23:34;3.95;;;1.63;;
41875;SDS011;27555;50.808;4.402;2022-12-26T13:26:28;10.38;;;1.83;;
41875;SDS011;27555;50.808;4.402;2022-12-26T13:29:04;6.00;;;1.08;;
41875;SDS011;27555;50.808;4.402;2022-12-26T13:31:50;11.20;;;1.58;;
41875;SDS011;27555;50.808;4.402;2022-12-26T13:34:17;5.15;;;1.52;;
41875;SDS011;27555;50.808;4.402;2022-12-26T13:36:45;11.25;;;1.38;;
41875;SDS011;27555;50.808;4.402;2022-12-26T13:39:15;14.13;;;1.98;;
41875;SDS011;27555;50.808;4.402;2022-12-26T13:41:45;12.32;;;2.10;;
41875;SDS011;27555;50.808;4.402;2022-12-26T13:44:39;8.10;;;1.50;;
41875;SDS011;27555;50.808;4.402;2022-12-26T13:47:05;9.10;;;1.27;;
41875;SDS011;27555;50.808;4.402;2022-12-26T13:49:50;4.00;;;1.65;;
41875;SDS011;27555;50.808;4.402;2022-12-26T13:52:23;12.35;;;2.25;;
41875;SDS011;27555;50.808;4.402;2022-12-26T14:00:08;10.45;;;2.13;;
41875;SDS011;27555;50.808;4.402;2022-12-26T14:25:29;11.65;;;2.45;;
41875;SDS011;27555;50.808;4.402;2022-12-26T14:28:14;8.75;;;2.80;;
41875;SDS011;27555;50.808;4.402;2022-12-26T14:31:03;7.53;;;2.05;;
41875;SDS011;27555;50.808;4.402;2022-12-26T14:42:22;16.45;;;4.57;;
41875;SDS011;27555;50.808;4.402;2022-12-26T14:45:12;11.60;;;1.90;;
41875;SDS011;27555;50.808;4.402;2022-12-26T14:48:02;15.95;;;2.33;;
41875;SDS011;27555;50.808;4.402;2022-12-26T14:50:48;9.77;;;1.75;;
41875;SDS011;27555;50.808;4.402;2022-12-26T14:58:30;6.82;;;1.70;;
41875;SDS011;27555;50.808;4.402;2022-12-26T15:28:06;7.18;;;1.70;;
41875;SDS011;27555;50.808;4.402;2022-12-26T15:33:26;22.58;;;1.80;;
41875;SDS011;27555;50.808;4.402;2022-12-26T15:41:45;6.60;;;1.30;;
41875;SDS011;27555;50.808;4.402;2022-12-26T15:44:24;7.15;;;1.52;;
41875;SDS011;27555;50.808;4.402;2022-12-26T16:04:16;17.38;;;1.85;;
41875;SDS011;27555;50.808;4.402;2022-12-26T16:12:19;10.23;;;1.95;;
41875;SDS011;27555;50.808;4.402;2022-12-26T16:14:45;10.57;;;1.80;;
41875;SDS011;27555;50.808;4.402;2022-12-26T16:19:40;14.10;;;2.17;;
41875;SDS011;27555;50.808;4.402;2022-12-26T16:22:09;7.43;;;1.20;;
41875;SDS011;27555;50.808;4.402;2022-12-26T16:25:03;13.43;;;3.60;;
41875;SDS011;27555;50.808;4.402;2022-12-26T16:27:31;35.97;;;11.10;;
41875;SDS011;27555;50.808;4.402;2022-12-26T16:30:00;116.82;;;41.03;;
41875;SDS011;27555;50.808;4.402;2022-12-26T16:32:30;18.13;;;5.78;;
41875;SDS011;27555;50.808;4.402;2022-12-26T16:35:00;14.02;;;4.68;;
41875;SDS011;27555;50.808;4.402;2022-12-26T16:37:26;9.32;;;3.88;;
41875;SDS011;27555;50.808;4.402;2022-12-26T16:40:06;23.33;;;7.70;;
41875;SDS011;27555;50.808;4.402;2022-12-26T16:42:42;10.48;;;4.55;;
41875;SDS011;27555;50.808;4.402;2022-12-26T16:45:19;10.30;;;3.22;;
41875;SDS011;27555;50.808;4.402;2022-12-26T16:47:46;9.52;;;3.00;;
41875;SDS011;27555;50.808;4.402;2022-12-26T16:50:15;7.28;;;1.88;;
41875;SDS011;27555;50.808;4.402;2022-12-26T16:52:44;11.52;;;3.55;;
41875;SDS011;27555;50.808;4.402;2022-12-26T17:00:44;8.80;;;1.95;;
41875;SDS011;27555;50.808;4.402;2022-12-26T17:03:23;10.18;;;2.20;;
41875;SDS011;27555;50.808;4.402;2022-12-26T17:05:56;6.82;;;1.80;;
41875;SDS011;27555;50.808;4.402;2022-12-26T17:08:21;10.35;;;2.05;;
41875;SDS011;27555;50.808;4.402;2022-12-26T17:10:48;8.75;;;2.15;;
41875;SDS011;27555;50.808;4.402;2022-12-26T17:13:21;5.80;;;1.73;;
41875;SDS011;27555;50.808;4.402;2022-12-26T17:15:55;7.70;;;2.25;;
41875;SDS011;27555;50.808;4.402;2022-12-26T17:23:40;9.32;;;2.15;;
41875;SDS011;27555;50.808;4.402;2022-12-26T17:26:16;13.90;;;2.70;;
41875;SDS011;27555;50.808;4.402;2022-12-26T17:28:53;12.07;;;2.50;;
41875;SDS011;27555;50.808;4.402;2022-12-26T17:31:21;15.25;;;4.28;;
41875;SDS011;27555;50.808;4.402;2022-12-26T17:33:47;33.67;;;11.50;;
41875;SDS011;27555;50.808;4.402;2022-12-26T17:36:14;15.75;;;5.03;;
41875;SDS011;27555;50.808;4.402;2022-12-26T17:38:41;14.60;;;5.00;;
41875;SDS011;27555;50.808;4.402;2022-12-26T17:41:08;18.23;;;5.70;;
41875;SDS011;27555;50.808;4.402;2022-12-26T17:43:37;26.88;;;9.73;;
41875;SDS011;27555;50.808;4.402;2022-12-26T17:46:04;17.70;;;4.55;;
41875;SDS011;27555;50.808;4.402;2022-12-26T17:48:30;19.70;;;3.38;;
41875;SDS011;27555;50.808;4.402;2022-12-26T17:50:57;12.02;;;2.75;;
41875;SDS011;27555;50.808;4.402;2022-12-26T17:56:00;10.00;;;2.45;;
41875;SDS011;27555;50.808;4.402;2022-12-26T17:58:28;15.77;;;3.22;;
41875;SDS011;27555;50.808;4.402;2022-12-26T18:00:54;9.10;;;2.60;;
41875;SDS011;27555;50.808;4.402;2022-12-26T18:03:20;14.15;;;2.55;;
41875;SDS011;27555;50.808;4.402;2022-12-26T18:05:46;10.73;;;2.20;;
41875;SDS011;27555;50.808;4.402;2022-12-26T18:08:28;6.13;;;1.92;;
41875;SDS011;27555;50.808;4.402;2022-12-26T18:11:00;6.00;;;2.22;;
41875;SDS011;27555;50.808;4.402;2022-12-26T18:13:27;12.60;;;2.35;;
41875;SDS011;27555;50.808;4.402;2022-12-26T18:15:53;13.68;;;1.92;;
41875;SDS011;27555;50.808;4.402;2022-12-26T18:18:25;6.30;;;1.92;;
41875;SDS011;27555;50.808;4.402;2022-12-26T18:20:55;7.00;;;2.30;;
41875;SDS011;27555;50.808;4.402;2022-12-26T18:23:21;15.27;;;3.03;;
41875;SDS011;27555;50.808;4.402;2022-12-26T18:25:47;12.07;;;2.05;;
41875;SDS011;27555;50.808;4.402;2022-12-26T18:28:14;6.40;;;1.98;;
41875;SDS011;27555;50.808;4.402;2022-12-26T18:30:41;9.30;;;2.58;;
41875;SDS011;27555;50.808;4.402;2022-12-26T18:33:10;10.80;;;3.30;;
41875;SDS011;27555;50.808;4.402;2022-12-26T18:35:39;20.15;;;3.65;;
41875;SDS011;27555;50.808;4.402;2022-12-26T18:38:06;11.43;;;3.22;;
41875;SDS011;27555;50.808;4.402;2022-12-26T18:40:37;12.63;;;2.65;;
41875;SDS011;27555;50.808;4.402;2022-12-26T18:43:05;9.63;;;2.70;;
41875;SDS011;27555;50.808;4.402;2022-12-26T18:45:31;6.57;;;2.05;;
41875;SDS011;27555;50.808;4.402;2022-12-26T18:47:58;13.60;;;3.17;;
41875;SDS011;27555;50.808;4.402;2022-12-26T18:50:25;7.78;;;1.85;;
41875;SDS011;27555;50.808;4.402;2022-12-26T18:52:51;15.13;;;4.05;;
41875;SDS011;27555;50.808;4.402;2022-12-26T18:55:17;17.77;;;4.43;;
41875;SDS011;27555;50.808;4.402;2022-12-26T18:57:43;15.07;;;3.78;;
41875;SDS011;27555;50.808;4.402;2022-12-26T19:00:12;7.18;;;2.83;;
41875;SDS011;27555;50.808;4.402;2022-12-26T19:05:05;9.10;;;2.85;;
41875;SDS011;27555;50.808;4.402;2022-12-26T19:07:31;11.35;;;3.42;;
41875;SDS011;27555;50.808;4.402;2022-12-26T19:09:56;7.00;;;2.45;;
41875;SDS011;27555;50.808;4.402;2022-12-26T19:12:24;13.63;;;2.95;;
41875;SDS011;27555;50.808;4.402;2022-12-26T19:14:50;7.00;;;2.13;;
41875;SDS011;27555;50.808;4.402;2022-12-26T19:17:16;10.15;;;3.15;;
41875;SDS011;27555;50.808;4.402;2022-12-26T19:19:42;18.13;;;2.75;;
41875;SDS011;27555;50.808;4.402;2022-12-26T19:22:07;12.73;;;2.55;;
41875;SDS011;27555;50.808;4.402;2022-12-26T19:24:34;9.30;;;2.53;;
41875;SDS011;27555;50.808;4.402;2022-12-26T19:27:00;5.80;;;1.95;;
41875;SDS011;27555;50.808;4.402;2022-12-26T19:29:26;10.13;;;2.70;;